createdAt,value
2022-09-02T00:03:42.899Z,1.90
2022-09-02T00:08:43.891Z,1.48
2022-09-02T00:13:45.611Z,1.70
2022-09-02T00:18:47.906Z,1.70
2022-09-02T00:23:48.882Z,1.70
2022-09-02T00:28:56.190Z,1.45
2022-09-02T00:33:57.452Z,1.75
2022-09-02T00:38:58.792Z,1.92
2022-09-02T00:44:08.675Z,1.77
2022-09-02T00:49:34.929Z,2.05
2022-09-02T00:54:43.100Z,1.98
2022-09-02T01:00:45.737Z,1.55
2022-09-02T01:05:49.911Z,2.03
2022-09-02T01:16:43.431Z,1.67
2022-09-02T01:21:50.465Z,1.45
2022-09-02T01:26:53.570Z,1.50
2022-09-02T01:31:56.235Z,1.55
2022-09-02T01:36:57.337Z,1.62
2022-09-02T01:42:00.181Z,1.70
2022-09-02T01:47:01.852Z,1.40
2022-09-02T01:52:04.093Z,1.40
2022-09-02T01:57:06.693Z,1.80
2022-09-02T02:02:08.146Z,1.45
2022-09-02T02:07:09.214Z,1.40
2022-09-02T02:12:10.127Z,1.37
2022-09-02T02:17:11.374Z,1.30
2022-09-02T02:22:14.311Z,1.83
2022-09-02T02:27:15.192Z,1.67
2022-09-02T02:32:17.825Z,1.55
2022-09-02T02:37:25.256Z,1.70
2022-09-02T02:42:26.717Z,1.87
2022-09-02T02:47:27.682Z,1.85
2022-09-02T02:52:28.807Z,1.60
2022-09-02T02:57:29.996Z,1.62
2022-09-02T03:02:33.621Z,1.60
2022-09-02T03:07:34.993Z,1.70
2022-09-02T03:12:38.987Z,1.60
2022-09-02T03:17:40.574Z,1.60
2022-09-02T03:22:43.386Z,1.77
2022-09-02T03:27:45.197Z,1.83
2022-09-02T03:32:46.452Z,1.80
2022-09-02T03:37:50.619Z,1.48
2022-09-02T03:42:56.657Z,1.42
2022-09-02T03:48:02.877Z,1.40
2022-09-02T03:53:07.040Z,1.67
2022-09-02T03:58:09.535Z,2.80
2022-09-02T04:03:11.887Z,3.20
2022-09-02T04:08:13.424Z,2.85
2022-09-02T04:13:14.743Z,2.35
2022-09-02T04:19:12.119Z,2.62
2022-09-02T04:24:20.146Z,1.92
2022-09-02T04:29:23.446Z,1.92
2022-09-02T04:34:25.565Z,1.70
2022-09-02T04:39:26.768Z,1.75
2022-09-02T04:44:27.894Z,1.75
2022-09-02T04:49:31.453Z,2.05
2022-09-02T04:54:32.680Z,1.87
2022-09-02T04:59:35.681Z,1.95
2022-09-02T05:04:40.577Z,2.08
2022-09-02T05:09:46.677Z,2.20
2022-09-02T05:14:51.615Z,1.85
2022-09-02T05:19:54.155Z,1.77
2022-09-02T05:24:56.141Z,1.80
2022-09-02T05:29:58.842Z,1.98
2022-09-02T05:35:00.131Z,1.60
2022-09-02T05:40:01.601Z,1.95
2022-09-02T05:45:04.972Z,1.70
2022-09-02T05:55:10.103Z,1.80
2022-09-02T06:00:18.033Z,1.80
2022-09-02T06:05:27.490Z,1.60
2022-09-02T06:10:40.885Z,1.80
2022-09-02T06:15:43.973Z,1.80
2022-09-02T06:20:47.123Z,1.90
2022-09-02T06:25:49.078Z,1.80
2022-09-02T06:30:50.453Z,1.87
2022-09-02T06:35:54.992Z,1.92
2022-09-02T06:40:56.601Z,1.67
2022-09-02T06:46:04.372Z,1.87
2022-09-02T06:51:07.063Z,2.10
2022-09-02T06:56:09.978Z,1.60
2022-09-02T07:01:19.249Z,1.67
2022-09-02T07:06:21.969Z,2.00
2022-09-02T07:16:27.256Z,1.60
2022-09-02T07:21:30.372Z,1.70
2022-09-02T07:26:31.535Z,1.60
2022-09-02T07:31:32.735Z,2.03
2022-09-02T07:36:35.812Z,1.67
2022-09-02T07:46:41.042Z,1.37
2022-09-02T07:51:48.353Z,2.12
2022-09-02T07:56:50.102Z,1.48
2022-09-02T08:01:52.964Z,1.60
2022-09-02T08:06:55.563Z,1.65
2022-09-02T08:11:56.593Z,1.60
2022-09-02T08:16:58.007Z,1.30
2022-09-02T08:22:06.151Z,1.67
2022-09-02T08:27:07.098Z,1.67
2022-09-02T08:32:08.260Z,1.90
2022-09-02T08:37:09.102Z,1.92
2022-09-02T08:42:25.323Z,1.95
2022-09-02T08:47:33.387Z,1.85
2022-09-02T08:52:58.627Z,1.83
2022-09-02T08:58:01.093Z,1.75
2022-09-02T09:03:24.600Z,1.90
2022-09-02T09:08:57.262Z,1.60
2022-09-02T09:14:17.500Z,1.62
2022-09-02T09:19:49.417Z,1.90
2022-09-02T09:24:50.649Z,1.80
2022-09-02T09:29:52.521Z,1.20
2022-09-02T09:35:11.120Z,1.67
2022-09-02T09:40:27.526Z,1.30
2022-09-02T09:45:37.736Z,1.55
2022-09-02T09:50:38.782Z,1.70
2022-09-02T09:56:04.511Z,1.37
2022-09-02T10:01:49.500Z,1.67
2022-09-02T10:06:50.512Z,1.58
2022-09-02T10:12:01.660Z,1.52
2022-09-02T10:17:18.222Z,1.58
2022-09-02T10:23:38.830Z,1.20
2022-09-02T10:31:49.286Z,1.50
2022-09-02T10:37:22.961Z,1.55
2022-09-02T10:44:07.212Z,1.55
2022-09-02T10:49:43.978Z,1.37
2022-09-02T10:55:16.505Z,1.25
2022-09-02T11:00:22.413Z,1.30
2022-09-02T11:05:29.106Z,1.50
2022-09-02T11:12:39.832Z,1.40
2022-09-02T11:23:36.553Z,1.33
2022-09-02T11:29:38.078Z,1.27
2022-09-02T11:34:48.767Z,1.53
2022-09-02T11:41:34.116Z,1.30
2022-09-02T11:49:33.097Z,1.90
2022-09-02T11:55:30.256Z,1.50
2022-09-02T12:00:59.490Z,1.20
2022-09-02T12:06:14.668Z,1.20
2022-09-02T12:11:40.941Z,1.30
2022-09-02T12:17:01.930Z,1.45
2022-09-02T12:24:16.271Z,1.25
2022-09-02T12:29:35.692Z,1.15
2022-09-02T12:34:52.854Z,1.20
2022-09-02T12:39:57.708Z,1.23
2022-09-02T12:45:28.688Z,1.20
2022-09-02T12:50:52.916Z,1.20
2022-09-02T12:56:03.575Z,0.98
2022-09-02T13:01:13.375Z,1.25
2022-09-02T13:07:51.386Z,1.23
2022-09-02T13:13:30.829Z,1.20
2022-09-02T13:22:01.965Z,1.10
2022-09-02T13:29:07.510Z,0.93
2022-09-02T13:34:13.023Z,0.88
2022-09-02T13:39:27.191Z,1.10
2022-09-02T13:44:28.861Z,1.20
2022-09-02T13:49:37.852Z,1.07
2022-09-02T13:54:42.819Z,1.17
2022-09-02T13:59:50.020Z,1.25
2022-09-02T14:05:05.247Z,1.23
2022-09-02T14:10:09.880Z,1.00
2022-09-02T14:15:15.583Z,1.15
2022-09-02T14:20:21.750Z,1.42
2022-09-02T14:25:27.434Z,1.10
2022-09-02T14:30:35.303Z,1.48
2022-09-02T14:35:36.256Z,1.48
2022-09-02T14:40:42.210Z,0.90
2022-09-02T14:45:48.298Z,1.23
2022-09-02T14:51:02.107Z,1.30
2022-09-02T14:56:05.287Z,1.15
2022-09-02T15:06:13.102Z,1.27
2022-09-02T15:11:19.978Z,1.40
2022-09-02T15:16:20.871Z,1.10
2022-09-02T15:21:22.054Z,1.15
2022-09-02T15:26:23.137Z,1.27
2022-09-02T15:31:24.868Z,1.10
2022-09-02T15:36:27.033Z,1.40
2022-09-02T15:41:30.966Z,1.25
2022-09-02T15:46:36.586Z,0.90
2022-09-02T15:51:38.491Z,1.20
2022-09-02T15:56:41.506Z,1.07
2022-09-02T16:01:48.215Z,0.93
2022-09-02T16:06:51.944Z,0.95
2022-09-02T16:11:55.211Z,1.25
2022-09-02T16:16:56.706Z,1.40
2022-09-02T16:21:57.835Z,0.90
2022-09-02T16:26:59.379Z,1.15
2022-09-02T16:32:23.781Z,1.10
2022-09-02T16:37:25.841Z,0.90
2022-09-02T16:42:27.214Z,1.10
2022-09-02T16:47:28.165Z,1.05
2022-09-02T16:52:31.402Z,1.12
2022-09-02T16:57:32.423Z,1.10
2022-09-02T17:02:33.898Z,1.30
2022-09-02T17:07:34.793Z,0.90
2022-09-02T17:12:39.606Z,0.90
2022-09-02T17:17:43.164Z,1.10
2022-09-02T17:22:44.078Z,1.20
2022-09-02T17:27:45.110Z,1.00
2022-09-02T17:32:46.079Z,1.00
2022-09-02T17:37:48.767Z,0.90
2022-09-02T17:42:49.759Z,0.82
2022-09-02T17:47:50.679Z,1.30
2022-09-02T17:52:51.577Z,1.02
2022-09-02T17:58:17.763Z,1.02
2022-09-02T18:05:02.594Z,0.88
2022-09-02T18:10:04.397Z,1.00
2022-09-02T18:15:06.370Z,1.00
2022-09-02T18:20:26.117Z,1.10
2022-09-02T18:25:57.075Z,1.00
2022-09-02T18:35:42.268Z,0.80
2022-09-02T18:46:50.196Z,1.17
2022-09-02T18:51:58.275Z,1.00
2022-09-02T18:57:04.470Z,1.05
2022-09-02T19:02:32.348Z,1.10
2022-09-02T19:07:52.827Z,1.15
2022-09-02T19:12:56.610Z,1.00
2022-09-02T19:17:59.321Z,1.00
2022-09-02T19:23:04.829Z,1.20
2022-09-02T19:28:06.073Z,1.00
2022-09-02T19:33:09.310Z,1.35
2022-09-02T19:38:11.056Z,1.17
2022-09-02T19:43:15.222Z,1.10
2022-09-02T19:48:17.326Z,1.00
2022-09-02T19:53:29.457Z,0.80
2022-09-02T19:58:30.336Z,1.00
2022-09-02T20:03:32.035Z,1.25
2022-09-02T20:08:33.736Z,1.08
2022-09-02T20:13:40.705Z,0.93
2022-09-02T20:18:46.023Z,1.10
2022-09-02T20:23:47.296Z,1.10
2022-09-02T20:29:25.337Z,0.82
2022-09-02T20:42:45.990Z,1.37
2022-09-02T20:51:05.503Z,1.35
2022-09-02T20:56:47.331Z,1.02
2022-09-02T21:01:49.763Z,1.10
2022-09-02T21:07:45.070Z,1.20
2022-09-02T21:13:31.269Z,1.27
2022-09-02T21:18:50.447Z,1.05
2022-09-02T21:24:17.274Z,1.20
2022-09-02T21:29:24.226Z,1.20
2022-09-02T21:34:35.289Z,1.20
2022-09-02T21:39:43.286Z,1.00
2022-09-02T21:45:28.402Z,0.80
2022-09-02T21:50:49.409Z,1.23
2022-09-02T21:56:48.855Z,1.10
2022-09-02T22:01:58.947Z,1.20
2022-09-02T22:08:49.564Z,0.88
2022-09-02T22:13:50.551Z,1.15
2022-09-02T22:19:01.044Z,1.27
2022-09-02T22:24:02.260Z,0.90
2022-09-02T22:30:39.405Z,1.10
2022-09-02T22:36:00.044Z,1.27
2022-09-02T22:41:19.385Z,1.02
2022-09-02T22:46:49.579Z,1.00
2022-09-02T22:52:20.682Z,1.33
2022-09-02T22:57:46.766Z,1.30
2022-09-02T23:03:13.744Z,1.10
2022-09-02T23:08:19.686Z,1.10
2022-09-02T23:18:35.514Z,1.00
2022-09-02T23:23:53.351Z,1.10
2022-09-02T23:29:19.022Z,0.95
2022-09-02T23:36:07.391Z,1.30
2022-09-02T23:41:10.650Z,1.30
2022-09-02T23:46:30.355Z,1.12
2022-09-02T23:51:55.322Z,1.27
2022-09-02T23:57:21.513Z,1.30
